createdAt,value
2023-05-14T00:00:18.102Z,11.77
2023-05-14T00:03:06.541Z,11.88
2023-05-14T00:05:34.583Z,11.48
2023-05-14T00:08:02.876Z,12.52
2023-05-14T00:10:30.790Z,12.27
2023-05-14T00:12:59.088Z,11.63
2023-05-14T00:15:27.197Z,11.73
2023-05-14T00:17:57.762Z,12.55
2023-05-14T00:20:26.146Z,12.60
2023-05-14T00:22:54.293Z,12.35
2023-05-14T00:25:22.107Z,11.80
2023-05-14T00:27:50.321Z,11.23
2023-05-14T00:30:18.145Z,13.73
2023-05-14T00:32:46.225Z,12.80
2023-05-14T00:35:14.238Z,13.40
2023-05-14T00:37:42.594Z,13.18
2023-05-14T00:40:13.131Z,12.98
2023-05-14T00:42:41.454Z,13.13
2023-05-14T00:45:09.984Z,12.70
2023-05-14T00:47:39.501Z,13.68
2023-05-14T00:50:08.453Z,14.23
2023-05-14T00:52:38.238Z,12.75
2023-05-14T00:55:07.407Z,12.70
2023-05-14T00:57:36.547Z,13.30
2023-05-14T01:00:04.983Z,13.30
2023-05-14T01:02:33.299Z,12.27
2023-05-14T01:05:02.102Z,12.93
2023-05-14T01:07:40.662Z,13.93
2023-05-14T01:10:29.774Z,12.20
2023-05-14T01:13:21.039Z,14.13
2023-05-14T01:15:49.827Z,12.98
2023-05-14T01:18:19.667Z,13.63
2023-05-14T01:20:51.184Z,14.02
2023-05-14T01:23:21.633Z,13.95
2023-05-14T01:25:49.843Z,14.60
2023-05-14T01:28:19.380Z,13.40
2023-05-14T01:31:16.555Z,13.40
2023-05-14T01:33:47.653Z,13.80
2023-05-14T01:36:16.015Z,14.15
2023-05-14T01:38:47.536Z,13.48
2023-05-14T01:41:16.732Z,13.60
2023-05-14T01:43:46.219Z,13.77
2023-05-14T01:46:18.030Z,14.18
2023-05-14T01:48:49.365Z,16.40
2023-05-14T01:51:18.634Z,15.23
2023-05-14T01:53:47.774Z,16.05
2023-05-14T01:56:16.117Z,16.02
2023-05-14T01:58:45.192Z,15.95
2023-05-14T02:01:13.434Z,17.40
2023-05-14T02:03:41.834Z,16.33
2023-05-14T02:06:09.784Z,16.42
2023-05-14T02:08:37.990Z,16.55
2023-05-14T02:11:06.006Z,17.13
2023-05-14T02:13:34.394Z,16.48
2023-05-14T02:16:02.475Z,18.30
2023-05-14T02:18:31.413Z,16.55
2023-05-14T02:20:59.480Z,16.63
2023-05-14T02:23:37.761Z,17.08
2023-05-14T02:26:06.236Z,17.48
2023-05-14T02:28:34.517Z,16.75
2023-05-14T02:31:02.446Z,16.60
2023-05-14T02:33:30.982Z,16.33
2023-05-14T02:35:58.960Z,15.90
2023-05-14T02:38:27.446Z,15.80
2023-05-14T02:40:57.620Z,16.15
2023-05-14T02:43:25.855Z,14.70
2023-05-14T02:45:53.686Z,14.75
2023-05-14T02:48:21.896Z,14.60
2023-05-14T02:50:54.813Z,14.80
2023-05-14T02:53:22.932Z,14.05
2023-05-14T02:55:50.897Z,14.10
2023-05-14T02:58:19.355Z,14.50
2023-05-14T03:00:53.738Z,15.05
2023-05-14T03:03:22.752Z,14.38
2023-05-14T03:05:51.239Z,15.00
2023-05-14T03:08:19.419Z,14.50
2023-05-14T03:10:47.249Z,13.82
2023-05-14T03:13:18.002Z,14.45
2023-05-14T03:15:47.031Z,15.05
2023-05-14T03:18:15.325Z,14.90
2023-05-14T03:20:43.179Z,15.32
2023-05-14T03:23:11.475Z,15.75
2023-05-14T03:25:39.446Z,15.05
2023-05-14T03:28:07.971Z,15.65
2023-05-14T03:30:36.385Z,16.02
2023-05-14T03:33:07.056Z,15.63
2023-05-14T03:35:35.022Z,16.35
2023-05-14T03:38:03.228Z,15.50
2023-05-14T03:40:31.075Z,15.80
2023-05-14T03:42:59.379Z,16.60
2023-05-14T03:45:28.853Z,16.45
2023-05-14T03:47:59.856Z,17.33
2023-05-14T03:50:31.444Z,15.65
2023-05-14T03:52:59.821Z,16.98
2023-05-14T03:55:27.760Z,17.20
2023-05-14T03:57:56.213Z,18.20
2023-05-14T04:00:24.534Z,16.00
2023-05-14T04:02:54.625Z,16.40
2023-05-14T04:05:24.884Z,17.33
2023-05-14T04:07:53.273Z,17.67
2023-05-14T04:10:21.694Z,15.60
2023-05-14T04:12:50.236Z,17.05
2023-05-14T04:15:22.183Z,17.40
2023-05-14T04:17:52.407Z,15.50
2023-05-14T04:20:20.763Z,16.13
2023-05-14T04:22:49.413Z,15.65
2023-05-14T04:25:18.622Z,16.42
2023-05-14T04:27:47.097Z,17.92
2023-05-14T04:30:15.375Z,16.17
2023-05-14T04:32:44.556Z,16.42
2023-05-14T04:35:13.256Z,16.25
2023-05-14T04:37:41.753Z,14.68
2023-05-14T04:40:12.889Z,16.75
2023-05-14T04:42:41.311Z,17.33
2023-05-14T04:45:10.108Z,16.80
2023-05-14T04:47:38.578Z,18.17
2023-05-14T04:50:07.268Z,16.08
2023-05-14T04:52:35.746Z,16.30
2023-05-14T04:55:03.923Z,17.55
2023-05-14T04:57:32.157Z,17.10
2023-05-14T05:00:00.198Z,16.70
2023-05-14T05:02:28.857Z,15.65
2023-05-14T05:04:56.790Z,16.05
2023-05-14T05:07:25.207Z,16.92
2023-05-14T05:09:53.184Z,15.80
2023-05-14T05:12:21.701Z,15.68
2023-05-14T05:14:49.846Z,15.95
2023-05-14T05:17:18.584Z,16.63
2023-05-14T05:19:46.871Z,15.65
2023-05-14T05:22:15.902Z,15.95
2023-05-14T05:24:44.116Z,15.30
2023-05-14T05:27:12.854Z,14.80
2023-05-14T05:29:41.352Z,16.52
2023-05-14T05:32:09.838Z,15.73
2023-05-14T05:34:38.219Z,16.40
2023-05-14T05:37:06.920Z,16.02
2023-05-14T05:39:35.475Z,14.70
2023-05-14T05:42:05.535Z,15.77
2023-05-14T05:44:33.864Z,15.35
2023-05-14T05:47:02.361Z,15.05
2023-05-14T05:49:31.112Z,14.95
2023-05-14T05:54:25.086Z,14.65
2023-05-14T05:56:53.373Z,15.73
2023-05-14T05:59:21.775Z,14.55
2023-05-14T06:01:50.125Z,13.73
2023-05-14T06:04:18.119Z,14.35
2023-05-14T06:06:46.467Z,15.20
2023-05-14T06:09:14.694Z,14.02
2023-05-14T06:11:43.117Z,13.32
2023-05-14T06:14:11.074Z,14.50
2023-05-14T06:16:39.494Z,14.00
2023-05-14T06:19:08.483Z,14.27
2023-05-14T06:21:36.945Z,14.75
2023-05-14T06:24:05.164Z,14.48
2023-05-14T06:26:33.366Z,14.75
2023-05-14T06:29:01.546Z,14.07
2023-05-14T06:31:32.072Z,14.30
2023-05-14T06:34:00.050Z,15.32
2023-05-14T06:36:28.439Z,13.65
2023-05-14T06:38:56.476Z,14.82
2023-05-14T06:41:24.672Z,15.32
2023-05-14T06:43:52.797Z,14.68
2023-05-14T06:46:21.451Z,15.65
2023-05-14T06:48:49.448Z,14.13
2023-05-14T06:51:17.762Z,14.27
2023-05-14T06:53:46.890Z,15.88
2023-05-14T06:56:15.174Z,14.55
2023-05-14T06:58:43.234Z,14.88
2023-05-14T07:01:11.549Z,14.68
2023-05-14T07:03:40.490Z,13.45
2023-05-14T07:06:08.687Z,14.23
2023-05-14T07:08:36.527Z,13.13
2023-05-14T07:11:04.820Z,14.30
2023-05-14T07:13:32.699Z,13.82
2023-05-14T07:16:01.013Z,14.52
2023-05-14T07:18:29.057Z,13.95
2023-05-14T07:20:57.617Z,12.57
2023-05-14T07:23:25.446Z,14.05
2023-05-14T07:25:53.731Z,13.95
2023-05-14T07:28:21.679Z,14.02
2023-05-14T07:30:50.081Z,14.48
2023-05-14T07:33:18.096Z,13.52
2023-05-14T07:35:48.092Z,14.13
2023-05-14T07:38:17.064Z,13.27
2023-05-14T07:40:45.525Z,13.88
2023-05-14T07:43:14.484Z,14.20
2023-05-14T07:45:43.018Z,13.93
2023-05-14T07:48:11.519Z,13.98
2023-05-14T07:50:40.233Z,14.25
2023-05-14T07:53:08.876Z,13.75
2023-05-14T07:55:37.355Z,14.88
2023-05-14T07:58:05.253Z,13.27
2023-05-14T08:00:33.745Z,14.50
2023-05-14T08:03:01.848Z,13.63
2023-05-14T08:05:30.397Z,13.02
2023-05-14T08:07:58.370Z,12.98
2023-05-14T08:10:27.339Z,13.32
2023-05-14T08:12:56.110Z,13.35
2023-05-14T08:15:27.075Z,12.77
2023-05-14T08:20:24.570Z,13.38
2023-05-14T08:22:52.820Z,13.50
2023-05-14T08:25:21.171Z,13.90
2023-05-14T08:27:49.408Z,12.50
2023-05-14T08:30:18.223Z,13.23
2023-05-14T08:32:46.365Z,12.65
2023-05-14T08:35:14.856Z,14.07
2023-05-14T08:37:42.834Z,12.02
2023-05-14T08:40:12.470Z,13.93
2023-05-14T08:42:45.150Z,12.88
2023-05-14T08:45:29.328Z,15.68
2023-05-14T08:47:58.688Z,13.43
2023-05-14T08:50:28.339Z,13.40
2023-05-14T08:52:56.917Z,13.65
2023-05-14T08:55:26.700Z,13.85
2023-05-14T08:57:54.812Z,13.52
2023-05-14T09:00:24.010Z,13.10
2023-05-14T09:02:53.227Z,12.93
2023-05-14T09:05:23.088Z,13.27
2023-05-14T09:07:53.721Z,13.65
2023-05-14T09:10:23.056Z,13.27
2023-05-14T09:12:51.864Z,14.30
2023-05-14T09:15:20.335Z,13.98
2023-05-14T09:17:48.817Z,13.73
2023-05-14T09:20:17.322Z,13.93
2023-05-14T09:22:45.382Z,13.68
2023-05-14T09:25:16.975Z,13.65
2023-05-14T09:27:50.344Z,13.88
2023-05-14T09:30:20.713Z,12.73
2023-05-14T09:32:50.398Z,13.75
2023-05-14T09:35:24.245Z,14.10
2023-05-14T09:37:55.580Z,13.85
2023-05-14T09:40:24.998Z,13.45
2023-05-14T09:42:53.257Z,14.25
2023-05-14T09:45:21.733Z,12.98
2023-05-14T09:47:49.803Z,13.68
2023-05-14T09:50:43.682Z,14.25
2023-05-14T09:53:44.710Z,13.43
2023-05-14T09:56:14.330Z,12.48
2023-05-14T09:58:42.623Z,13.00
2023-05-14T10:01:11.780Z,11.90
2023-05-14T10:03:40.091Z,11.95
2023-05-14T10:06:13.475Z,12.50
2023-05-14T10:08:45.013Z,11.93
2023-05-14T10:11:25.236Z,13.13
2023-05-14T10:14:04.708Z,13.38
2023-05-14T10:16:37.982Z,12.25
2023-05-14T10:19:11.294Z,12.07
2023-05-14T10:21:41.687Z,13.02
2023-05-14T10:24:12.956Z,12.48
2023-05-14T10:26:42.141Z,13.10
2023-05-14T10:29:11.572Z,13.43
2023-05-14T10:31:55.575Z,12.90
2023-05-14T10:34:46.730Z,12.80
2023-05-14T10:39:58.857Z,12.40
2023-05-14T10:42:36.207Z,12.88
2023-05-14T10:45:08.408Z,12.32
2023-05-14T10:47:42.024Z,12.55
2023-05-14T10:50:12.966Z,12.70
2023-05-14T10:52:46.367Z,12.75
2023-05-14T10:55:16.213Z,12.13
2023-05-14T10:57:46.292Z,13.00
2023-05-14T11:00:15.200Z,12.07
2023-05-14T11:02:44.897Z,13.38
2023-05-14T11:05:20.820Z,13.15
2023-05-14T11:07:51.979Z,13.07
2023-05-14T11:10:26.233Z,12.98
2023-05-14T11:13:01.461Z,12.07
2023-05-14T11:15:45.282Z,12.45
2023-05-14T11:18:31.569Z,12.02
2023-05-14T11:21:09.223Z,12.55
2023-05-14T11:23:40.466Z,11.77
2023-05-14T11:26:13.630Z,12.15
2023-05-14T11:28:42.612Z,13.02
2023-05-14T11:31:10.940Z,11.90
2023-05-14T11:33:40.768Z,12.55
2023-05-14T11:36:16.110Z,11.60
2023-05-14T11:38:49.211Z,11.88
2023-05-14T11:41:17.351Z,11.65
2023-05-14T11:43:51.735Z,11.00
2023-05-14T11:46:20.796Z,11.85
2023-05-14T11:48:49.224Z,11.80
2023-05-14T11:51:23.387Z,11.73
2023-05-14T11:53:51.895Z,11.50
2023-05-14T11:56:22.766Z,11.55
2023-05-14T11:58:58.405Z,10.45
2023-05-14T12:01:33.924Z,11.93
2023-05-14T12:04:32.031Z,11.02
2023-05-14T12:07:07.753Z,11.43
2023-05-14T12:09:44.216Z,11.82
2023-05-14T12:12:13.314Z,11.25
2023-05-14T12:14:43.456Z,10.57
2023-05-14T12:17:19.032Z,11.40
2023-05-14T12:19:49.585Z,10.35
2023-05-14T12:22:21.129Z,10.40
2023-05-14T12:27:09.587Z,10.75
2023-05-14T12:29:39.197Z,10.23
2023-05-14T12:32:10.960Z,11.52
2023-05-14T12:34:41.315Z,11.25
2023-05-14T12:37:09.215Z,11.60
2023-05-14T12:39:37.737Z,11.77
2023-05-14T12:42:06.036Z,10.93
2023-05-14T12:44:38.472Z,10.35
2023-05-14T12:47:12.358Z,11.10
2023-05-14T12:49:41.066Z,12.45
2023-05-14T12:54:48.294Z,10.43
2023-05-14T12:57:16.368Z,10.85
2023-05-14T12:59:47.713Z,10.52
2023-05-14T13:02:18.931Z,11.98
2023-05-14T13:04:47.308Z,10.10
2023-05-14T13:07:15.641Z,9.70
2023-05-14T13:09:44.154Z,9.55
2023-05-14T13:12:21.103Z,9.00
2023-05-14T13:14:53.373Z,8.65
2023-05-14T13:17:23.971Z,8.07
2023-05-14T13:20:08.917Z,8.73
2023-05-14T13:22:36.953Z,8.88
2023-05-14T13:25:06.070Z,9.20
2023-05-14T13:27:35.965Z,9.68
2023-05-14T13:30:04.620Z,8.52
2023-05-14T13:32:32.560Z,8.23
2023-05-14T13:35:00.811Z,8.93
2023-05-14T13:37:28.826Z,8.93
2023-05-14T13:39:57.145Z,9.05
2023-05-14T13:42:25.091Z,8.80
2023-05-14T13:44:53.276Z,9.40
2023-05-14T13:47:21.152Z,9.70
2023-05-14T13:49:49.419Z,10.10
2023-05-14T13:52:17.455Z,11.43
2023-05-14T13:54:46.066Z,10.52
2023-05-14T13:57:14.269Z,11.50
2023-05-14T13:59:42.681Z,10.07
2023-05-14T14:02:10.556Z,10.05
2023-05-14T14:04:39.080Z,16.90
2023-05-14T14:07:07.151Z,10.27
2023-05-14T14:09:36.883Z,8.68
2023-05-14T14:12:05.477Z,9.93
2023-05-14T14:14:33.792Z,10.38
2023-05-14T14:17:01.843Z,9.50
2023-05-14T14:19:30.130Z,8.57
2023-05-14T14:21:59.252Z,8.88
2023-05-14T14:24:27.602Z,7.95
2023-05-14T14:26:55.701Z,8.25
2023-05-14T14:29:24.962Z,8.63
2023-05-14T14:31:53.178Z,8.88
2023-05-14T14:34:21.986Z,8.02
2023-05-14T14:36:50.261Z,8.00
2023-05-14T14:39:18.897Z,6.90
2023-05-14T14:41:47.867Z,5.55
2023-05-14T14:44:16.719Z,5.90
2023-05-14T14:46:44.700Z,6.38
2023-05-14T14:49:13.239Z,6.13
2023-05-14T14:51:48.053Z,5.80
2023-05-14T14:54:17.012Z,6.32
2023-05-14T14:56:46.144Z,6.90
2023-05-14T14:59:14.453Z,6.85
2023-05-14T15:01:42.882Z,6.70
2023-05-14T15:04:11.275Z,5.75
2023-05-14T15:06:39.460Z,7.40
2023-05-14T15:09:08.099Z,6.53
2023-05-14T15:11:37.409Z,7.03
2023-05-14T15:14:06.288Z,7.20
2023-05-14T15:16:34.319Z,7.25
2023-05-14T15:19:03.016Z,7.63
2023-05-14T15:21:32.406Z,7.20
2023-05-14T15:24:03.111Z,6.85
2023-05-14T15:26:31.368Z,5.93
2023-05-14T15:28:59.877Z,7.10
2023-05-14T15:31:28.062Z,6.97
2023-05-14T15:33:56.960Z,7.50
2023-05-14T15:36:25.204Z,7.13
2023-05-14T15:38:53.492Z,7.07
2023-05-14T15:41:23.203Z,7.43
2023-05-14T15:43:51.912Z,6.97
2023-05-14T15:46:19.793Z,7.07
2023-05-14T15:48:48.156Z,8.02
2023-05-14T15:51:16.007Z,7.93
2023-05-14T15:53:44.272Z,8.23
2023-05-14T15:56:12.205Z,7.50
2023-05-14T15:58:40.493Z,7.32
2023-05-14T16:01:08.428Z,7.32
2023-05-14T16:03:36.931Z,7.60
2023-05-14T16:06:07.931Z,6.60
2023-05-14T16:08:36.205Z,7.32
2023-05-14T16:11:04.372Z,6.93
2023-05-14T16:13:32.783Z,7.82
2023-05-14T16:16:01.544Z,6.93
2023-05-14T16:18:30.202Z,7.38
2023-05-14T16:20:58.500Z,7.35
2023-05-14T16:23:27.384Z,8.00
2023-05-14T16:25:55.321Z,8.00
2023-05-14T16:28:24.019Z,7.40
2023-05-14T16:30:54.915Z,7.32
2023-05-14T16:33:23.344Z,7.97
2023-05-14T16:35:54.707Z,7.50
2023-05-14T16:38:23.270Z,7.28
2023-05-14T16:40:51.322Z,7.63
2023-05-14T16:43:19.618Z,7.00
2023-05-14T16:45:51.085Z,6.82
2023-05-14T16:48:19.531Z,6.82
2023-05-14T16:50:47.513Z,6.70
2023-05-14T16:53:15.872Z,6.60
2023-05-14T16:55:43.895Z,6.57
2023-05-14T16:58:12.025Z,7.55
2023-05-14T17:00:39.985Z,7.07
2023-05-14T17:03:08.215Z,6.75
2023-05-14T17:05:36.239Z,7.35
2023-05-14T17:08:05.320Z,6.85
2023-05-14T17:10:33.542Z,6.60
2023-05-14T17:13:06.134Z,6.55
2023-05-14T17:15:52.916Z,6.32
2023-05-14T17:18:21.378Z,6.35
2023-05-14T17:20:50.144Z,6.35
2023-05-14T17:23:19.250Z,6.45
2023-05-14T17:25:47.553Z,6.22
2023-05-14T17:28:15.503Z,6.65
2023-05-14T17:30:44.015Z,5.97
2023-05-14T17:33:15.176Z,5.97
2023-05-14T17:35:45.977Z,6.55
2023-05-14T17:38:14.056Z,6.47
2023-05-14T17:40:42.930Z,6.13
2023-05-14T17:43:12.071Z,6.53
2023-05-14T17:45:52.966Z,6.20
2023-05-14T17:48:24.731Z,6.15
2023-05-14T17:50:52.871Z,6.72
2023-05-14T17:53:21.117Z,5.47
2023-05-14T17:55:50.234Z,6.57
2023-05-14T17:58:18.108Z,7.10
2023-05-14T18:00:46.430Z,6.20
2023-05-14T18:03:15.177Z,6.18
2023-05-14T18:05:43.434Z,6.60
2023-05-14T18:08:11.220Z,6.93
2023-05-14T18:10:39.512Z,5.82
2023-05-14T18:13:07.549Z,5.90
2023-05-14T18:15:38.810Z,6.18
2023-05-14T18:18:07.029Z,6.13
2023-05-14T18:20:36.967Z,6.10
2023-05-14T18:23:05.235Z,9.30
2023-05-14T18:25:35.206Z,9.75
2023-05-14T18:28:11.887Z,9.98
2023-05-14T18:30:40.337Z,9.90
2023-05-14T18:33:08.444Z,11.40
2023-05-14T18:35:36.704Z,13.57
2023-05-14T18:38:04.638Z,13.80
2023-05-14T18:40:35.904Z,15.50
2023-05-14T18:43:03.842Z,13.85
2023-05-14T18:45:33.024Z,13.57
2023-05-14T18:48:01.405Z,15.25
2023-05-14T18:50:31.074Z,13.18
2023-05-14T18:53:14.570Z,12.55
2023-05-14T18:55:44.397Z,14.95
2023-05-14T18:58:14.500Z,16.08
2023-05-14T19:00:49.830Z,15.38
2023-05-14T19:03:20.402Z,14.77
2023-05-14T19:05:50.673Z,16.23
2023-05-14T19:08:18.712Z,15.07
2023-05-14T19:10:49.680Z,15.40
2023-05-14T19:13:17.790Z,17.05
2023-05-14T19:15:46.050Z,17.75
2023-05-14T19:18:14.025Z,17.20
2023-05-14T19:20:42.591Z,18.58
2023-05-14T19:23:10.535Z,17.58
2023-05-14T19:25:38.906Z,18.17
2023-05-14T19:28:06.898Z,17.13
2023-05-14T19:30:35.508Z,17.05
2023-05-14T19:33:03.677Z,17.42
2023-05-14T19:35:32.036Z,17.17
2023-05-14T19:38:00.260Z,17.45
2023-05-14T19:40:28.819Z,16.65
2023-05-14T19:42:56.931Z,16.00
2023-05-14T19:45:25.252Z,17.02
2023-05-14T19:47:53.679Z,17.50
2023-05-14T19:50:21.949Z,16.40
2023-05-14T19:52:50.023Z,15.95
2023-05-14T19:55:19.651Z,15.80
2023-05-14T20:00:19.538Z,15.88
2023-05-14T20:02:47.975Z,15.18
2023-05-14T20:05:16.866Z,14.65
2023-05-14T20:07:45.080Z,14.48
2023-05-14T20:10:14.263Z,14.55
2023-05-14T20:12:42.660Z,14.32
2023-05-14T20:15:35.126Z,14.65
2023-05-14T20:18:13.324Z,15.07
2023-05-14T20:20:42.939Z,14.38
2023-05-14T20:23:11.714Z,14.20
2023-05-14T20:25:41.742Z,14.55
2023-05-14T20:28:13.450Z,14.30
2023-05-14T20:30:42.729Z,14.55
2023-05-14T20:33:10.829Z,14.27
2023-05-14T20:35:40.928Z,13.95
2023-05-14T20:38:08.953Z,13.65
2023-05-14T20:40:37.427Z,13.38
2023-05-14T20:43:05.663Z,13.25
2023-05-14T20:45:34.470Z,13.18
2023-05-14T20:48:12.334Z,13.23
2023-05-14T20:50:41.067Z,12.88
2023-05-14T20:53:09.268Z,13.05
2023-05-14T20:55:37.790Z,12.77
2023-05-14T20:58:05.717Z,12.02
2023-05-14T21:00:35.451Z,10.68
2023-05-14T21:03:04.417Z,7.85
2023-05-14T21:05:33.056Z,6.13
2023-05-14T21:08:01.127Z,6.00
2023-05-14T21:10:30.138Z,4.50
2023-05-14T21:13:00.453Z,3.97
2023-05-14T21:15:30.716Z,3.53
2023-05-14T21:17:58.767Z,3.47
2023-05-14T21:20:27.378Z,3.05
2023-05-14T21:22:55.583Z,3.17
2023-05-14T21:25:27.552Z,3.13
2023-05-14T21:27:56.013Z,2.80
2023-05-14T21:30:24.299Z,2.88
2023-05-14T21:32:52.480Z,2.72
2023-05-14T21:35:22.025Z,2.90
2023-05-14T21:37:50.405Z,2.90
2023-05-14T21:40:19.342Z,2.88
2023-05-14T21:42:48.113Z,2.58
2023-05-14T21:45:21.108Z,2.80
2023-05-14T21:47:51.410Z,2.80
2023-05-14T21:50:20.156Z,2.70
2023-05-14T21:52:48.419Z,2.70
2023-05-14T21:55:16.971Z,2.58
2023-05-14T21:57:49.592Z,2.83
2023-05-14T22:00:23.552Z,2.67
2023-05-14T22:02:53.169Z,2.90
2023-05-14T22:05:22.546Z,2.58
2023-05-14T22:07:50.879Z,2.38
2023-05-14T22:10:23.187Z,2.50
2023-05-14T22:12:54.299Z,2.40
2023-05-14T22:15:24.260Z,2.40
2023-05-14T22:17:53.262Z,2.47
2023-05-14T22:20:24.921Z,2.30
2023-05-14T22:22:53.679Z,2.10
2023-05-14T22:25:22.959Z,2.40
2023-05-14T22:27:51.293Z,2.30
2023-05-14T22:30:20.122Z,2.20
2023-05-14T22:32:48.768Z,2.00
2023-05-14T22:35:17.715Z,2.40
2023-05-14T22:37:46.607Z,2.30
2023-05-14T22:40:15.330Z,2.05
2023-05-14T22:42:43.869Z,2.60
2023-05-14T22:45:12.371Z,2.60
2023-05-14T22:47:40.990Z,2.30
2023-05-14T22:50:11.625Z,2.30
2023-05-14T22:52:40.415Z,2.53
2023-05-14T22:55:09.544Z,2.40
2023-05-14T22:57:37.788Z,2.35
2023-05-14T23:00:08.134Z,2.55
2023-05-14T23:02:36.683Z,2.30
2023-05-14T23:05:07.031Z,2.55
2023-05-14T23:07:35.695Z,2.53
2023-05-14T23:10:04.516Z,2.30
2023-05-14T23:12:32.917Z,2.50
2023-05-14T23:15:01.800Z,2.30
2023-05-14T23:17:30.443Z,2.40
2023-05-14T23:19:59.228Z,2.40
2023-05-14T23:22:30.077Z,2.40
2023-05-14T23:27:26.626Z,2.58
2023-05-14T23:29:55.263Z,2.50
2023-05-14T23:32:24.489Z,2.50
2023-05-14T23:34:56.906Z,2.22
2023-05-14T23:37:28.564Z,2.58
2023-05-14T23:39:57.251Z,2.70
2023-05-14T23:42:25.724Z,2.58
2023-05-14T23:44:54.097Z,2.60
2023-05-14T23:47:23.325Z,2.70
2023-05-14T23:49:52.121Z,2.90
2023-05-14T23:52:21.766Z,2.50
2023-05-14T23:54:50.457Z,2.85
2023-05-14T23:57:18.906Z,2.80
2023-05-14T23:59:47.871Z,2.80
